createdAt,value
2022-10-17T00:01:07.936Z,27.95
2022-10-17T00:03:38.806Z,30.13
2022-10-17T00:06:12.156Z,30.55
2022-10-17T00:08:41.140Z,30.30
2022-10-17T00:11:15.562Z,30.88
2022-10-17T00:13:43.736Z,31.75
2022-10-17T00:16:11.668Z,31.63
2022-10-17T00:18:39.668Z,32.20
2022-10-17T00:21:15.008Z,30.13
2022-10-17T00:23:42.937Z,31.85
2022-10-17T00:26:10.991Z,30.83
2022-10-17T00:28:39.055Z,30.58
2022-10-17T00:31:08.069Z,30.77
2022-10-17T00:33:36.719Z,28.60
2022-10-17T00:36:09.341Z,28.63
2022-10-17T00:38:37.807Z,28.57
2022-10-17T00:41:05.778Z,29.90
2022-10-17T00:44:03.227Z,29.33
2022-10-17T00:46:35.039Z,31.75
2022-10-17T00:49:10.201Z,29.77
2022-10-17T00:51:41.894Z,28.98
2022-10-17T00:54:12.921Z,28.65
2022-10-17T00:56:40.807Z,29.50
2022-10-17T00:59:11.513Z,28.33
2022-10-17T01:01:43.435Z,28.67
2022-10-17T01:04:11.488Z,30.35
2022-10-17T01:06:40.483Z,29.90
2022-10-17T01:09:08.393Z,29.15
2022-10-17T01:12:01.640Z,28.88
2022-10-17T01:15:00.677Z,27.55
2022-10-17T01:17:46.616Z,29.02
2022-10-17T01:20:51.717Z,28.80
2022-10-17T01:23:41.144Z,29.75
2022-10-17T01:26:23.100Z,30.23
2022-10-17T01:29:06.676Z,29.73
2022-10-17T01:31:49.194Z,31.67
2022-10-17T01:34:30.202Z,30.77
2022-10-17T01:37:03.930Z,31.48
2022-10-17T01:39:41.616Z,29.95
2022-10-17T01:42:43.130Z,31.10
2022-10-17T01:45:23.213Z,28.45
2022-10-17T01:47:53.582Z,31.63
2022-10-17T01:50:33.146Z,31.50
2022-10-17T01:53:16.590Z,31.27
2022-10-17T01:55:50.573Z,31.17
2022-10-17T01:58:28.181Z,30.70
2022-10-17T02:01:01.570Z,32.08
2022-10-17T02:03:34.562Z,33.30
2022-10-17T02:06:02.933Z,33.33
2022-10-17T02:08:49.431Z,33.17
2022-10-17T02:11:20.218Z,31.15
2022-10-17T02:14:25.854Z,30.70
2022-10-17T02:16:53.678Z,29.92
2022-10-17T02:19:27.683Z,32.53
2022-10-17T02:22:16.474Z,34.40
2022-10-17T02:24:55.862Z,31.52
2022-10-17T02:27:26.947Z,32.17
2022-10-17T02:30:05.847Z,31.85
2022-10-17T02:32:35.780Z,32.03
2022-10-17T02:35:07.497Z,32.05
2022-10-17T02:37:36.536Z,29.33
2022-10-17T02:40:06.763Z,33.03
2022-10-17T02:42:35.278Z,31.90
2022-10-17T02:45:05.907Z,30.65
2022-10-17T02:47:48.253Z,32.28
2022-10-17T02:50:16.404Z,33.78
2022-10-17T02:52:59.042Z,31.35
2022-10-17T02:55:33.585Z,33.00
2022-10-17T02:58:07.091Z,35.40
2022-10-17T03:00:41.858Z,36.25
2022-10-17T03:03:32.018Z,33.38
2022-10-17T03:06:02.974Z,34.20
2022-10-17T03:08:30.951Z,30.90
2022-10-17T03:10:58.852Z,32.58
2022-10-17T03:13:29.377Z,34.55
2022-10-17T03:15:58.169Z,34.92
2022-10-17T03:18:26.118Z,38.00
2022-10-17T03:20:58.793Z,39.58
2022-10-17T03:23:26.784Z,37.53
2022-10-17T03:25:54.705Z,34.80
2022-10-17T03:28:23.178Z,42.30
2022-10-17T03:30:51.214Z,44.50
2022-10-17T03:33:19.049Z,44.70
2022-10-17T03:35:46.935Z,42.53
2022-10-17T03:38:15.080Z,42.38
2022-10-17T03:40:42.945Z,39.67
2022-10-17T03:43:11.935Z,41.95
2022-10-17T03:45:41.640Z,41.40
2022-10-17T03:48:09.375Z,43.25
2022-10-17T03:50:37.344Z,39.92
2022-10-17T03:53:05.037Z,39.40
2022-10-17T03:55:33.748Z,41.17
2022-10-17T03:58:01.494Z,38.38
2022-10-17T04:00:30.005Z,40.53
2022-10-17T04:02:59.567Z,40.63
2022-10-17T04:05:28.044Z,38.15
2022-10-17T04:07:58.763Z,39.33
2022-10-17T04:10:48.846Z,39.83
2022-10-17T04:13:16.557Z,42.88
2022-10-17T04:15:58.033Z,39.03
2022-10-17T04:18:25.834Z,40.92
2022-10-17T04:20:54.400Z,41.88
2022-10-17T04:23:23.053Z,40.90
2022-10-17T04:26:03.986Z,43.80
2022-10-17T04:28:32.991Z,43.38
2022-10-17T04:31:05.875Z,45.00
2022-10-17T04:33:40.150Z,44.17
2022-10-17T04:36:14.497Z,43.55
2022-10-17T04:41:16.350Z,42.85
2022-10-17T04:43:47.060Z,41.83
2022-10-17T04:46:19.562Z,42.92
2022-10-17T04:48:47.880Z,42.92
2022-10-17T04:51:20.695Z,44.63
2022-10-17T04:54:11.212Z,43.47
2022-10-17T04:56:42.640Z,42.65
2022-10-17T04:59:10.748Z,43.95
2022-10-17T05:01:40.960Z,41.58
2022-10-17T05:04:08.629Z,40.92
2022-10-17T05:06:38.175Z,42.63
2022-10-17T05:09:24.553Z,41.00
2022-10-17T05:11:52.714Z,41.78
2022-10-17T05:14:20.553Z,41.20
2022-10-17T05:16:50.358Z,42.17
2022-10-17T05:19:18.611Z,41.97
2022-10-17T05:21:50.158Z,41.65
2022-10-17T05:24:18.108Z,42.45
2022-10-17T05:26:45.973Z,42.88
2022-10-17T05:29:14.110Z,43.40
2022-10-17T05:31:47.209Z,45.10
2022-10-17T05:34:15.023Z,44.10
2022-10-17T05:36:43.611Z,43.97
2022-10-17T05:39:14.903Z,45.22
2022-10-17T05:41:43.305Z,41.40
2022-10-17T05:44:11.007Z,41.25
2022-10-17T05:46:42.086Z,41.17
2022-10-17T05:49:19.688Z,42.03
2022-10-17T05:52:00.177Z,43.53
2022-10-17T05:54:28.356Z,42.85
2022-10-17T05:56:57.434Z,44.00
2022-10-17T05:59:29.450Z,44.40
2022-10-17T06:02:17.727Z,43.50
2022-10-17T06:04:48.558Z,42.30
2022-10-17T06:07:17.100Z,43.58
2022-10-17T06:12:18.721Z,42.50
2022-10-17T06:14:47.434Z,44.70
2022-10-17T06:17:16.867Z,42.65
2022-10-17T06:19:45.533Z,42.45
2022-10-17T06:22:15.846Z,39.83
2022-10-17T06:24:44.370Z,41.33
2022-10-17T06:27:13.460Z,40.25
2022-10-17T06:29:42.383Z,41.40
2022-10-17T06:32:14.278Z,41.00
2022-10-17T06:34:46.013Z,40.22
2022-10-17T06:37:13.915Z,41.53
2022-10-17T06:39:42.868Z,40.10
2022-10-17T06:42:21.531Z,38.40
2022-10-17T06:45:07.582Z,40.65
2022-10-17T06:48:02.112Z,39.45
2022-10-17T06:50:52.333Z,37.20
2022-10-17T06:53:25.044Z,36.58
2022-10-17T06:56:09.452Z,36.78
2022-10-17T06:58:55.656Z,36.05
2022-10-17T07:01:26.793Z,33.47
2022-10-17T07:03:58.469Z,34.13
2022-10-17T07:06:26.426Z,32.03
2022-10-17T07:08:57.193Z,31.17
2022-10-17T07:11:25.892Z,31.48
2022-10-17T07:13:54.113Z,30.88
2022-10-17T07:16:22.931Z,29.02
2022-10-17T07:18:58.797Z,29.30
2022-10-17T07:21:26.611Z,28.65
2022-10-17T07:23:54.518Z,29.33
2022-10-17T07:26:23.248Z,27.27
2022-10-17T07:28:54.306Z,28.15
2022-10-17T07:31:33.416Z,26.70
2022-10-17T07:34:01.541Z,25.60
2022-10-17T07:36:30.178Z,25.25
2022-10-17T07:38:59.918Z,26.20
2022-10-17T07:41:28.426Z,25.23
2022-10-17T07:43:56.817Z,24.35
2022-10-17T07:46:31.054Z,23.90
2022-10-17T07:48:59.297Z,23.42
2022-10-17T07:51:27.968Z,22.48
2022-10-17T07:53:55.871Z,23.02
2022-10-17T07:56:24.879Z,22.58
2022-10-17T07:58:53.807Z,22.58
2022-10-17T08:01:21.572Z,22.35
2022-10-17T08:03:49.593Z,22.08
2022-10-17T08:06:17.884Z,21.73
2022-10-17T08:08:45.781Z,21.08
2022-10-17T08:11:15.701Z,21.02
2022-10-17T08:13:43.743Z,21.85
2022-10-17T08:16:13.570Z,20.75
2022-10-17T08:18:42.963Z,20.73
2022-10-17T08:21:13.097Z,21.73
2022-10-17T08:23:41.792Z,20.17
2022-10-17T08:26:13.286Z,21.35
2022-10-17T08:28:41.779Z,20.85
2022-10-17T08:31:19.400Z,21.45
2022-10-17T08:33:48.695Z,20.90
2022-10-17T08:36:19.494Z,19.58
2022-10-17T08:38:52.471Z,21.30
2022-10-17T08:41:38.673Z,20.77
2022-10-17T08:44:09.549Z,20.35
2022-10-17T08:46:42.656Z,20.45
2022-10-17T08:49:41.620Z,20.15
2022-10-17T08:52:27.837Z,20.70
2022-10-17T08:54:56.093Z,19.40
2022-10-17T08:57:23.828Z,19.10
2022-10-17T08:59:57.048Z,19.23
2022-10-17T09:02:52.824Z,18.88
2022-10-17T09:05:26.943Z,19.40
2022-10-17T09:11:02.343Z,19.05
2022-10-17T09:14:06.830Z,18.77
2022-10-17T09:17:10.428Z,17.58
2022-10-17T09:19:59.843Z,17.98
2022-10-17T09:22:52.241Z,17.85
2022-10-17T09:25:21.432Z,18.30
2022-10-17T09:28:02.189Z,18.17
2022-10-17T09:30:49.423Z,17.95
2022-10-17T09:33:34.655Z,17.30
2022-10-17T09:36:16.551Z,17.67
2022-10-17T09:39:15.401Z,17.88
2022-10-17T09:41:48.715Z,16.90
2022-10-17T09:44:16.663Z,17.02
2022-10-17T09:47:04.590Z,17.13
2022-10-17T09:49:36.330Z,16.45
2022-10-17T09:52:10.277Z,16.95
2022-10-17T09:54:57.468Z,17.55
2022-10-17T09:57:26.409Z,16.30
2022-10-17T10:00:05.861Z,17.25
2022-10-17T10:02:41.284Z,16.92
2022-10-17T10:05:21.088Z,17.02
2022-10-17T10:08:06.224Z,17.77
2022-10-17T10:10:34.316Z,16.95
2022-10-17T10:13:28.282Z,18.02
2022-10-17T10:16:18.474Z,17.25
2022-10-17T10:18:48.728Z,17.20
2022-10-17T10:21:27.382Z,17.83
2022-10-17T10:24:09.890Z,16.73
2022-10-17T10:26:50.086Z,17.63
2022-10-17T10:29:32.545Z,16.63
2022-10-17T10:32:27.308Z,17.08
2022-10-17T10:35:08.582Z,16.80
2022-10-17T10:37:48.287Z,16.38
2022-10-17T10:40:18.641Z,16.40
2022-10-17T10:42:58.418Z,18.00
2022-10-17T10:45:48.530Z,17.08
2022-10-17T10:48:24.515Z,16.63
2022-10-17T10:51:16.454Z,16.80
2022-10-17T10:54:19.307Z,17.02
2022-10-17T10:56:56.401Z,16.77
2022-10-17T10:59:43.008Z,16.52
2022-10-17T11:02:27.722Z,17.08
2022-10-17T11:05:01.803Z,16.55
2022-10-17T11:07:45.799Z,16.70
2022-10-17T11:10:44.812Z,16.67
2022-10-17T11:13:28.960Z,16.33
2022-10-17T11:19:00.467Z,15.90
2022-10-17T11:22:05.423Z,16.08
2022-10-17T11:24:56.984Z,15.68
2022-10-17T11:27:26.249Z,16.25
2022-10-17T11:29:54.066Z,16.45
2022-10-17T11:32:32.740Z,15.95
2022-10-17T11:35:20.331Z,17.00
2022-10-17T11:38:04.280Z,16.65
2022-10-17T11:40:36.160Z,17.23
2022-10-17T11:43:14.794Z,16.58
2022-10-17T11:45:47.551Z,15.90
2022-10-17T11:48:23.520Z,15.82
2022-10-17T11:54:28.877Z,16.63
2022-10-17T11:57:13.881Z,17.52
2022-10-17T12:00:23.244Z,16.63
2022-10-17T12:03:12.070Z,15.60
2022-10-17T12:05:57.516Z,16.33
2022-10-17T12:08:41.356Z,16.27
2022-10-17T12:11:24.799Z,16.73
2022-10-17T12:13:56.934Z,16.52
2022-10-17T12:16:24.954Z,16.00
2022-10-17T12:19:01.760Z,16.17
2022-10-17T12:21:50.485Z,15.48
2022-10-17T12:24:43.197Z,16.00
2022-10-17T12:27:46.080Z,15.25
2022-10-17T12:30:19.421Z,15.30
2022-10-17T12:33:22.591Z,15.77
2022-10-17T12:35:52.482Z,15.23
2022-10-17T12:38:27.883Z,14.90
2022-10-17T12:40:57.421Z,15.63
2022-10-17T12:43:28.320Z,14.52
2022-10-17T12:46:04.028Z,15.52
2022-10-17T12:48:37.883Z,15.40
2022-10-17T12:51:48.173Z,15.18
2022-10-17T12:54:18.518Z,14.25
2022-10-17T12:56:49.430Z,14.65
2022-10-17T12:59:28.226Z,14.82
2022-10-17T13:01:59.976Z,14.57
2022-10-17T13:04:30.626Z,15.35
2022-10-17T13:07:01.102Z,15.55
2022-10-17T13:09:32.616Z,15.32
2022-10-17T13:12:10.861Z,14.80
2022-10-17T13:14:42.284Z,14.40
2022-10-17T13:17:30.774Z,13.88
2022-10-17T13:19:58.902Z,15.05
2022-10-17T13:22:32.340Z,14.00
2022-10-17T13:25:15.202Z,14.82
2022-10-17T13:27:43.465Z,15.45
2022-10-17T13:30:29.312Z,14.80
2022-10-17T13:33:00.446Z,14.98
2022-10-17T13:35:59.893Z,14.05
2022-10-17T13:38:26.771Z,15.15
2022-10-17T13:41:01.636Z,14.90
2022-10-17T13:43:33.942Z,14.55
2022-10-17T13:46:25.488Z,15.15
2022-10-17T13:48:53.887Z,14.85
2022-10-17T13:51:22.243Z,14.60
2022-10-17T13:53:49.963Z,15.25
2022-10-17T13:56:29.275Z,13.88
2022-10-17T13:59:09.458Z,15.25
2022-10-17T14:01:39.089Z,14.43
2022-10-17T14:04:11.633Z,15.15
2022-10-17T14:06:49.843Z,15.15
2022-10-17T14:09:25.184Z,14.70
2022-10-17T14:12:03.857Z,15.77
2022-10-17T14:14:51.765Z,14.27
2022-10-17T14:17:29.159Z,14.82
2022-10-17T14:23:17.529Z,15.13
2022-10-17T14:25:41.012Z,16.08
2022-10-17T14:28:12.527Z,15.52
2022-10-17T14:30:58.345Z,16.17
2022-10-17T14:33:31.610Z,16.10
2022-10-17T14:36:01.519Z,16.13
2022-10-17T14:38:30.487Z,16.27
2022-10-17T14:41:41.340Z,16.58
2022-10-17T14:46:36.230Z,16.27
2022-10-17T14:49:18.419Z,16.45
2022-10-17T14:52:14.903Z,17.30
2022-10-17T14:54:47.424Z,17.48
2022-10-17T14:57:50.852Z,17.35
2022-10-17T15:00:21.078Z,19.00
2022-10-17T15:02:50.216Z,17.83
2022-10-17T15:05:19.690Z,17.27
2022-10-17T15:07:47.526Z,18.38
2022-10-17T15:10:26.749Z,17.25
2022-10-17T15:12:59.258Z,17.92
2022-10-17T15:15:33.272Z,18.05
2022-10-17T15:18:01.386Z,18.17
2022-10-17T15:20:30.639Z,17.83
2022-10-17T15:23:01.434Z,18.13
2022-10-17T15:25:30.989Z,18.95
2022-10-17T15:27:59.073Z,19.70
2022-10-17T15:30:29.796Z,19.00
2022-10-17T15:32:57.794Z,19.73
2022-10-17T15:35:27.240Z,20.05
2022-10-17T15:37:55.371Z,20.05
2022-10-17T15:40:24.530Z,20.08
2022-10-17T15:42:52.802Z,20.73
2022-10-17T15:45:24.217Z,21.70
2022-10-17T15:48:05.281Z,23.83
2022-10-17T15:50:33.410Z,22.83
2022-10-17T15:53:01.165Z,23.90
2022-10-17T15:55:29.226Z,22.50
2022-10-17T15:57:57.038Z,21.83
2022-10-17T16:00:25.517Z,21.83
2022-10-17T16:02:53.270Z,21.48
2022-10-17T16:05:23.686Z,22.92
2022-10-17T16:07:52.175Z,23.75
2022-10-17T16:10:20.827Z,24.73
2022-10-17T16:12:50.493Z,24.23
2022-10-17T16:15:22.971Z,25.00
2022-10-17T16:17:51.866Z,25.40
2022-10-17T16:20:20.982Z,25.10
2022-10-17T16:22:49.744Z,101.15
2022-10-17T16:25:24.439Z,42.38
2022-10-17T16:27:55.034Z,48.45
2022-10-17T16:30:24.416Z,43.00
2022-10-17T16:32:52.884Z,31.48
2022-10-17T16:35:31.712Z,34.03
2022-10-17T16:38:02.603Z,50.60
2022-10-17T16:40:30.523Z,41.50
2022-10-17T16:42:59.816Z,43.60
2022-10-17T16:45:27.909Z,40.13
2022-10-17T16:47:55.861Z,39.97
2022-10-17T16:50:24.469Z,33.50
2022-10-17T16:52:52.246Z,29.20
2022-10-17T16:55:20.636Z,32.40
2022-10-17T16:57:49.286Z,30.38
2022-10-17T17:00:18.194Z,32.10
2022-10-17T17:02:48.340Z,28.13
2022-10-17T17:05:16.399Z,29.77
2022-10-17T17:07:44.143Z,29.35
2022-10-17T17:10:12.166Z,28.67
2022-10-17T17:12:39.853Z,27.20
2022-10-17T17:15:07.959Z,28.75
2022-10-17T17:17:49.719Z,29.17
2022-10-17T17:20:19.351Z,28.40
2022-10-17T17:22:47.076Z,28.52
2022-10-17T17:25:14.994Z,28.58
2022-10-17T17:27:42.668Z,28.33
2022-10-17T17:30:10.989Z,26.80
2022-10-17T17:32:38.698Z,27.00
2022-10-17T17:35:07.180Z,27.20
2022-10-17T17:37:34.962Z,27.30
2022-10-17T17:40:02.923Z,26.40
2022-10-17T17:42:30.681Z,26.38
2022-10-17T17:44:58.718Z,27.73
2022-10-17T17:47:29.864Z,26.70
2022-10-17T17:49:58.068Z,28.20
2022-10-17T17:52:25.911Z,27.48
2022-10-17T17:54:53.880Z,27.45
2022-10-17T17:57:21.833Z,28.00
2022-10-17T17:59:50.168Z,26.52
2022-10-17T18:02:17.940Z,27.13
2022-10-17T18:04:46.001Z,26.17
2022-10-17T18:07:13.959Z,26.58
2022-10-17T18:09:41.886Z,25.35
2022-10-17T18:12:09.663Z,24.70
2022-10-17T18:14:37.593Z,25.13
2022-10-17T18:17:05.268Z,25.25
2022-10-17T18:19:33.598Z,24.90
2022-10-17T18:22:01.423Z,24.30
2022-10-17T18:24:29.345Z,23.80
2022-10-17T18:26:59.823Z,23.17
2022-10-17T18:29:29.513Z,23.95
2022-10-17T18:31:57.606Z,23.48
2022-10-17T18:34:25.666Z,22.88
2022-10-17T18:36:54.068Z,23.92
2022-10-17T18:39:21.993Z,21.88
2022-10-17T18:41:49.905Z,23.42
2022-10-17T18:44:17.817Z,22.90
2022-10-17T18:49:21.301Z,22.07
2022-10-17T18:51:49.262Z,21.90
2022-10-17T18:54:20.485Z,23.05
2022-10-17T18:56:51.145Z,21.48
2022-10-17T18:59:20.220Z,22.17
2022-10-17T19:01:48.611Z,22.42
2022-10-17T19:04:17.015Z,21.50
2022-10-17T19:06:44.857Z,21.40
2022-10-17T19:09:14.443Z,21.52
2022-10-17T19:11:42.906Z,21.95
2022-10-17T19:14:15.461Z,22.65
2022-10-17T19:16:50.923Z,21.52
2022-10-17T19:19:22.487Z,22.30
2022-10-17T19:21:50.941Z,21.10
2022-10-17T19:24:22.107Z,21.60
2022-10-17T19:26:53.438Z,21.58
2022-10-17T19:29:24.277Z,20.88
2022-10-17T19:31:52.548Z,21.08
2022-10-17T19:34:20.583Z,22.23
2022-10-17T19:36:48.523Z,22.25
2022-10-17T19:39:19.352Z,21.80
2022-10-17T19:41:48.250Z,21.23
2022-10-17T19:44:16.957Z,21.85
2022-10-17T19:46:46.717Z,21.13
2022-10-17T19:49:15.417Z,22.05
2022-10-17T19:51:43.408Z,22.02
2022-10-17T19:54:11.782Z,22.13
2022-10-17T19:56:40.412Z,22.58
2022-10-17T19:59:11.356Z,22.63
2022-10-17T20:01:39.321Z,22.67
2022-10-17T20:04:08.848Z,22.70
2022-10-17T20:06:36.910Z,22.63
2022-10-17T20:09:06.036Z,22.55
2022-10-17T20:11:34.229Z,21.98
2022-10-17T20:14:02.132Z,22.58
2022-10-17T20:16:32.030Z,23.08
2022-10-17T20:19:06.095Z,22.85
2022-10-17T20:21:39.464Z,21.60
2022-10-17T20:24:12.135Z,22.67
2022-10-17T20:26:40.828Z,23.35
2022-10-17T20:29:15.410Z,22.00
2022-10-17T20:31:44.662Z,21.73
2022-10-17T20:34:15.142Z,22.77
2022-10-17T20:36:42.932Z,22.40
2022-10-17T20:39:13.061Z,21.80
2022-10-17T20:41:41.754Z,22.42
2022-10-17T20:44:10.436Z,21.75
2022-10-17T20:46:44.671Z,22.52
2022-10-17T20:49:21.326Z,21.90
2022-10-17T20:51:49.308Z,21.73
2022-10-17T20:54:17.449Z,23.33
2022-10-17T20:56:45.232Z,21.27
2022-10-17T20:59:16.123Z,21.75
2022-10-17T21:01:45.411Z,22.60
2022-10-17T21:07:02.237Z,21.88
2022-10-17T21:09:30.653Z,20.20
2022-10-17T21:11:58.677Z,20.80
2022-10-17T21:14:26.746Z,20.85
2022-10-17T21:16:54.603Z,21.60
2022-10-17T21:19:22.937Z,21.92
2022-10-17T21:21:51.013Z,21.38
2022-10-17T21:24:20.823Z,21.73
2022-10-17T21:26:55.294Z,21.67
2022-10-17T21:29:24.363Z,21.88
2022-10-17T21:31:52.887Z,21.50
2022-10-17T21:34:24.668Z,20.85
2022-10-17T21:36:52.930Z,21.23
2022-10-17T21:39:23.004Z,21.10
2022-10-17T21:41:51.645Z,22.65
2022-10-17T21:44:23.440Z,22.73
2022-10-17T21:46:52.178Z,21.45
2022-10-17T21:49:23.449Z,22.00
2022-10-17T21:51:54.414Z,22.45
2022-10-17T21:54:23.615Z,21.65
2022-10-17T21:56:51.645Z,20.75
2022-10-17T21:59:19.513Z,22.38
2022-10-17T22:01:47.415Z,22.45
2022-10-17T22:04:18.992Z,22.23
2022-10-17T22:06:51.239Z,24.10
2022-10-17T22:09:23.149Z,22.95
2022-10-17T22:11:53.721Z,23.30
2022-10-17T22:14:23.629Z,21.73
2022-10-17T22:16:51.573Z,22.85
2022-10-17T22:19:25.189Z,21.80
2022-10-17T22:21:53.616Z,23.38
2022-10-17T22:24:22.483Z,22.83
2022-10-17T22:26:51.027Z,24.00
2022-10-17T22:29:19.044Z,23.02
2022-10-17T22:31:47.042Z,22.50
2022-10-17T22:34:16.350Z,23.05
2022-10-17T22:36:44.719Z,23.13
2022-10-17T22:39:12.971Z,23.15
2022-10-17T22:41:40.693Z,22.45
2022-10-17T22:44:08.691Z,24.42
2022-10-17T22:46:36.601Z,23.52
2022-10-17T22:49:04.853Z,23.25
2022-10-17T22:51:33.025Z,23.63
2022-10-17T22:54:02.311Z,23.02
2022-10-17T22:56:30.110Z,24.17
2022-10-17T22:58:58.109Z,24.10
2022-10-17T23:01:26.510Z,23.63
2022-10-17T23:03:54.505Z,23.63
2022-10-17T23:06:22.616Z,23.55
2022-10-17T23:08:51.061Z,23.15
2022-10-17T23:11:19.144Z,24.08
2022-10-17T23:13:47.036Z,24.08
2022-10-17T23:16:14.870Z,24.73
2022-10-17T23:18:44.161Z,24.23
2022-10-17T23:21:12.146Z,24.73
2022-10-17T23:23:40.003Z,24.40
2022-10-17T23:26:12.754Z,23.90
2022-10-17T23:28:42.468Z,24.70
2022-10-17T23:31:19.393Z,24.80
2022-10-17T23:33:49.124Z,24.30
2022-10-17T23:36:19.178Z,24.17
2022-10-17T23:38:48.673Z,25.27
2022-10-17T23:41:17.265Z,25.17
2022-10-17T23:43:45.632Z,24.88
2022-10-17T23:46:13.849Z,25.27
2022-10-17T23:48:42.196Z,24.13
2022-10-17T23:51:10.774Z,25.40
2022-10-17T23:53:39.543Z,25.15
2022-10-17T23:56:08.718Z,24.67
2022-10-17T23:58:37.588Z,25.00
